Time;durP1;ratioP1;P1;durP2;ratioP2;P2;SDS_P1;SDS_P2;PMS_P1;PMS_P2;Temp;Humidity;BMP_temperature;BMP_pressure;BME280_temperature;BME280_humidity;BME280_pressure;Samples;Min_cycle;Max_cycle;Signal;HPM_P1;HPM_P2
2022/03/15 00:00:27;;;;;;;12.95;4.50;;;6.90;99.90;;;;;;4180157;28;20103;-88
2022/03/15 00:02:28;;;;;;;26.38;5.10;;;6.90;99.90;;;;;;4173624;28;20041;-87
2022/03/15 00:04:29;;;;;;;14.48;3.92;;;6.00;99.90;;;;;;4179470;28;20632;-88
2022/03/15 00:06:30;;;;;;;13.38;4.28;;;6.00;99.90;;;;;;4181842;28;20044;-88
2022/03/15 00:08:32;;;;;;;17.63;3.63;;;6.40;99.90;;;;;;4177654;28;20526;-89
2022/03/15 00:10:33;;;;;;;13.02;4.63;;;5.90;99.90;;;;;;4180466;28;20124;-90
2022/03/15 00:12:35;;;;;;;12.93;4.03;;;5.90;99.90;;;;;;4196105;28;20044;-89
2022/03/15 00:14:37;;;;;;;20.35;4.63;;;6.10;99.90;;;;;;4172847;28;20083;-89
2022/03/15 00:16:38;;;;;;;15.43;4.70;;;5.90;99.90;;;;;;4179587;28;20040;-90
2022/03/15 00:18:39;;;;;;;12.07;4.63;;;5.80;99.90;;;;;;4158963;28;20447;-88
2022/03/15 00:20:40;;;;;;;13.60;4.28;;;5.90;99.90;;;;;;4179999;28;20487;-88
2022/03/15 00:22:42;;;;;;;12.88;4.25;;;5.80;99.90;;;;;;4196177;28;20064;-88
2022/03/15 00:24:43;;;;;;;11.68;4.97;;;5.90;99.90;;;;;;4173447;28;20082;-88
2022/03/15 00:26:44;;;;;;;16.00;4.50;;;7.10;99.90;;;;;;4181567;28;20057;-88
2022/03/15 00:28:45;;;;;;;15.15;3.75;;;5.80;99.90;;;;;;4163943;28;20045;-87
2022/03/15 00:30:47;;;;;;;21.45;5.05;;;5.60;99.90;;;;;;4180850;28;20559;-87
2022/03/15 00:32:50;;;;;;;14.90;4.70;;;5.70;99.90;;;;;;4179593;28;20519;-88
2022/03/15 00:34:51;;;;;;;13.75;4.50;;;6.40;99.90;;;;;;4174508;28;20037;-88
2022/03/15 00:36:52;;;;;;;20.98;4.82;;;6.40;99.90;;;;;;4180139;28;20506;-88
2022/03/15 00:38:53;;;;;;;11.57;4.32;;;5.60;99.90;;;;;;4181293;28;20094;-88
2022/03/15 00:40:54;;;;;;;12.95;4.47;;;5.60;99.90;;;;;;4164850;28;20275;-87
2022/03/15 00:42:55;;;;;;;18.05;6.05;;;6.00;99.90;;;;;;4175845;28;20045;-88
2022/03/15 00:44:55;;;;;;;14.90;4.45;;;6.80;99.90;;;;;;4181842;28;20439;-88
2022/03/15 00:46:56;;;;;;;14.48;4.72;;;5.60;99.90;;;;;;4182896;28;20124;-88
2022/03/15 00:48:57;;;;;;;22.48;4.38;;;6.10;99.90;;;;;;4181488;28;20080;-89
2022/03/15 00:50:58;;;;;;;18.13;4.75;;;6.20;99.90;;;;;;4182130;28;20478;-88
2022/03/15 00:53:03;;;;;;;12.13;4.63;;;6.40;99.90;;;;;;4191695;28;20041;-87
2022/03/15 00:55:05;;;;;;;14.80;4.30;;;6.60;99.90;;;;;;4195401;28;20052;-87
2022/03/15 00:57:06;;;;;;;20.25;4.72;;;5.40;99.90;;;;;;4194198;28;20053;-89
2022/03/15 00:59:08;;;;;;;17.35;5.80;;;6.70;99.90;;;;;;4178387;28;20072;-88
2022/03/15 01:01:09;;;;;;;13.35;4.43;;;6.20;99.90;;;;;;4185814;28;20057;-87
2022/03/15 01:03:10;;;;;;;16.83;5.20;;;5.40;99.90;;;;;;4181827;28;20571;-88
2022/03/15 01:05:11;;;;;;;14.52;5.20;;;6.30;99.90;;;;;;4181696;28;20049;-88
2022/03/15 01:07:12;;;;;;;10.45;4.40;;;5.70;99.90;;;;;;4181324;28;20140;-88
2022/03/15 01:09:13;;;;;;;11.48;5.03;;;6.10;99.90;;;;;;4179738;28;20063;-88
2022/03/15 01:11:13;;;;;;;22.17;6.35;;;5.30;99.90;;;;;;4163622;28;20068;-88
2022/03/15 01:13:15;;;;;;;13.93;4.28;;;6.50;99.90;;;;;;4163270;28;20515;-88
2022/03/15 01:15:16;;;;;;;14.00;4.30;;;6.20;99.90;;;;;;4182063;28;20048;-88
2022/03/15 01:17:17;;;;;;;11.68;4.50;;;5.20;99.90;;;;;;4183305;28;20071;-87
2022/03/15 01:19:18;;;;;;;12.13;5.18;;;5.80;99.90;;;;;;4182417;28;20041;-88
2022/03/15 01:21:19;;;;;;;15.63;4.80;;;6.40;99.90;;;;;;4166408;28;20045;-88
2022/03/15 01:23:20;;;;;;;17.35;5.43;;;5.30;99.90;;;;;;4182506;28;20435;-88
2022/03/15 01:25:22;;;;;;;14.65;4.75;;;5.20;99.90;;;;;;4182516;28;20053;-87
2022/03/15 01:27:28;;;;;;;16.27;4.38;;;5.20;99.90;;;;;;4183084;28;20510;-88
2022/03/15 01:29:35;;;;;;;14.00;4.50;;;5.20;99.90;;;;;;4184125;28;20041;-87
2022/03/15 01:31:41;;;;;;;14.55;4.35;;;5.20;99.90;;;;;;4182825;28;20466;-87
2022/03/15 01:33:45;;;;;;;13.68;5.15;;;5.10;99.90;;;;;;4182233;28;20103;-87
2022/03/15 01:35:49;;;;;;;15.43;4.20;;;5.10;99.90;;;;;;4182618;28;20049;-88
2022/03/15 01:38:02;;;;;;;17.60;6.05;;;5.50;99.90;;;;;;4166036;28;20045;-88
2022/03/15 01:40:03;;;;;;;18.73;4.88;;;5.20;99.90;;;;;;4185118;28;20045;-88
2022/03/15 01:42:04;;;;;;;12.52;5.13;;;5.10;99.90;;;;;;4182441;28;20632;-89
2022/03/15 01:44:16;;;;;;;23.65;6.03;;;5.10;99.90;;;;;;4183939;28;20052;-88
2022/03/15 01:46:17;;;;;;;18.35;5.32;;;5.80;99.90;;;;;;4182486;28;20045;-87
2022/03/15 01:48:18;;;;;;;19.35;5.75;;;5.70;99.90;;;;;;4181804;28;20121;-87
2022/03/15 01:50:20;;;;;;;13.15;5.95;;;6.30;99.90;;;;;;4166238;28;20045;-88
2022/03/15 01:52:21;;;;;;;18.02;5.65;;;5.00;99.90;;;;;;4182163;28;20052;-88
2022/03/15 01:54:22;;;;;;;20.80;6.50;;;5.00;99.90;;;;;;4182274;28;20413;-88
2022/03/15 01:56:24;;;;;;;20.38;5.90;;;6.10;99.90;;;;;;4181974;28;20068;-88
2022/03/15 01:58:25;;;;;;;17.83;5.70;;;5.30;99.90;;;;;;4165578;28;20045;-88
2022/03/15 02:00:26;;;;;;;13.23;5.38;;;6.30;99.90;;;;;;4183145;28;20051;-88
2022/03/15 02:02:27;;;;;;;16.20;6.47;;;6.00;99.90;;;;;;4181966;28;20100;-87
2022/03/15 02:04:28;;;;;;;21.15;6.07;;;4.90;99.90;;;;;;4182564;28;20383;-88
2022/03/15 02:06:29;;;;;;;14.38;5.63;;;5.60;99.90;;;;;;4183990;28;20051;-87
2022/03/15 02:08:33;;;;;;;13.48;5.88;;;4.90;99.90;;;;;;4180910;28;20127;-88
2022/03/15 02:10:34;;;;;;;17.70;5.93;;;4.80;99.90;;;;;;4182092;28;20488;-87
2022/03/15 02:12:38;;;;;;;24.42;7.38;;;5.40;99.90;;;;;;4165439;28;20384;-87
2022/03/15 02:14:39;;;;;;;23.33;7.40;;;5.80;99.90;;;;;;4182105;28;20057;-87
2022/03/15 02:16:40;;;;;;;19.05;7.00;;;6.00;99.90;;;;;;4183363;28;20428;-87
2022/03/15 02:18:42;;;;;;;16.65;6.20;;;5.10;99.90;;;;;;4165729;28;20161;-87
2022/03/15 02:20:44;;;;;;;21.08;6.47;;;5.70;99.90;;;;;;4165489;28;20050;-87
2022/03/15 02:22:45;;;;;;;20.65;6.20;;;5.10;99.90;;;;;;4184229;28;20045;-87
2022/03/15 02:24:46;;;;;;;13.52;6.05;;;3.80;99.90;;;;;;4165448;28;20057;-88
2022/03/15 02:26:50;;;;;;;22.88;7.93;;;4.80;99.90;;;;;;4182802;28;20045;-88
2022/03/15 02:28:50;;;;;;;19.40;7.63;;;4.80;99.90;;;;;;4182183;28;20057;-88
2022/03/15 02:30:52;;;;;;;19.30;7.40;;;4.80;99.90;;;;;;4182444;28;20379;-88
2022/03/15 02:32:54;;;;;;;29.35;8.68;;;5.70;99.90;;;;;;4181807;28;20057;-87
2022/03/15 02:34:55;;;;;;;21.35;7.97;;;4.50;99.90;;;;;;4182517;28;20041;-88
2022/03/15 02:36:56;;;;;;;16.85;7.20;;;4.80;99.90;;;;;;4181330;28;20060;-88
2022/03/15 02:38:57;;;;;;;18.95;7.50;;;4.80;99.90;;;;;;4184026;28;20372;-87
2022/03/15 02:40:58;;;;;;;19.35;7.95;;;4.60;99.90;;;;;;4183640;28;20045;-88
2022/03/15 02:42:59;;;;;;;21.67;8.05;;;5.90;99.90;;;;;;4182524;28;20055;-88
2022/03/15 02:45:00;;;;;;;21.02;7.70;;;4.80;99.90;;;;;;4182565;28;20491;-88
2022/03/15 02:47:01;;;;;;;19.42;8.10;;;5.70;99.90;;;;;;4182373;28;20051;-87
2022/03/15 02:49:03;;;;;;;27.02;8.38;;;4.80;99.90;;;;;;4182783;28;20510;-87
2022/03/15 02:51:08;;;;;;;21.95;7.50;;;4.90;99.90;;;;;;4164401;28;20055;-87
2022/03/15 02:53:09;;;;;;;17.33;7.55;;;6.30;99.90;;;;;;4182520;28;20111;-87
2022/03/15 02:55:10;;;;;;;24.48;7.75;;;5.60;99.90;;;;;;4182581;28;20045;-88
2022/03/15 02:57:11;;;;;;;27.25;8.60;;;5.60;99.90;;;;;;4182493;28;20077;-88
2022/03/15 02:59:16;;;;;;;18.83;8.73;;;5.50;99.90;;;;;;4165460;28;20049;-88
2022/03/15 03:01:20;;;;;;;23.73;8.10;;;5.90;99.90;;;;;;4184804;28;20057;-89
2022/03/15 03:03:22;;;;;;;25.05;8.20;;;5.70;99.90;;;;;;4184519;28;20053;-87
2022/03/15 03:05:24;;;;;;;20.73;7.60;;;6.20;99.90;;;;;;4181625;28;20048;-88
2022/03/15 03:07:25;;;;;;;16.95;7.35;;;6.30;99.90;;;;;;4185691;28;20476;-88
2022/03/15 03:09:25;;;;;;;20.38;8.90;;;6.10;99.90;;;;;;4185386;28;20045;-88
2022/03/15 03:11:26;;;;;;;19.27;8.00;;;6.20;99.90;;;;;;4164730;28;20041;-87
2022/03/15 03:13:27;;;;;;;17.80;7.03;;;5.10;99.90;;;;;;4182152;28;20411;-88
2022/03/15 03:15:32;;;;;;;20.63;7.50;;;6.30;99.90;;;;;;4180839;28;20041;-88
2022/03/15 03:17:33;;;;;;;20.67;8.00;;;5.10;99.90;;;;;;4181060;28;20448;-88
2022/03/15 03:19:38;;;;;;;19.08;8.90;;;5.20;99.90;;;;;;4180734;28;20564;-88
2022/03/15 03:21:40;;;;;;;26.50;8.05;;;6.20;99.90;;;;;;4180682;28;20073;-87
2022/03/15 03:23:40;;;;;;;16.85;7.43;;;6.30;99.90;;;;;;4182044;28;20049;-88
2022/03/15 03:25:42;;;;;;;22.33;8.95;;;6.00;99.90;;;;;;4182672;28;20051;-88
2022/03/15 03:27:43;;;;;;;23.15;8.60;;;6.10;99.90;;;;;;4181894;28;20056;-88
2022/03/15 03:29:44;;;;;;;20.40;9.32;;;5.20;99.90;;;;;;4164787;28;20046;-89
2022/03/15 03:31:46;;;;;;;17.02;7.95;;;5.70;99.90;;;;;;4164596;28;20046;-89
2022/03/15 03:33:48;;;;;;;17.52;9.20;;;5.00;99.90;;;;;;4164030;28;20088;-88
2022/03/15 03:35:49;;;;;;;20.48;8.68;;;5.20;99.90;;;;;;4181808;28;20651;-88
2022/03/15 03:37:51;;;;;;;17.05;7.82;;;5.90;99.90;;;;;;4182158;28;20057;-87
2022/03/15 03:39:53;;;;;;;19.88;9.13;;;5.60;99.90;;;;;;4180941;28;20044;-87
2022/03/15 03:41:54;;;;;;;17.23;8.73;;;5.20;99.90;;;;;;4181731;28;20056;-88
2022/03/15 03:43:55;;;;;;;18.88;6.95;;;6.30;99.90;;;;;;4181171;28;20087;-88
2022/03/15 03:45:57;;;;;;;18.30;7.90;;;6.30;99.90;;;;;;4183942;28;20033;-87
2022/03/15 03:47:58;;;;;;;17.52;7.88;;;6.00;99.90;;;;;;4168066;28;20527;-89
2022/03/15 03:49:59;;;;;;;21.08;8.25;;;5.30;99.90;;;;;;4185104;28;20098;-88
2022/03/15 03:52:05;;;;;;;20.02;7.85;;;6.40;99.90;;;;;;4184185;28;20071;-88
2022/03/15 03:54:06;;;;;;;26.10;7.68;;;5.30;99.90;;;;;;4184240;28;20123;-88
2022/03/15 03:56:07;;;;;;;20.83;7.50;;;5.30;99.90;;;;;;4200436;28;20056;-87
2022/03/15 03:58:07;;;;;;;18.92;7.63;;;6.40;99.90;;;;;;4167312;28;20048;-88
2022/03/15 04:00:09;;;;;;;19.20;7.75;;;5.30;99.90;;;;;;4183507;28;20095;-88
2022/03/15 04:02:09;;;;;;;21.50;8.02;;;5.40;99.90;;;;;;4183098;28;20056;-88
2022/03/15 04:04:10;;;;;;;14.98;7.05;;;6.60;99.90;;;;;;4182430;28;20491;-89
2022/03/15 04:06:13;;;;;;;27.33;8.38;;;6.70;99.90;;;;;;4182624;28;20049;-88
2022/03/15 04:08:14;;;;;;;19.33;7.82;;;6.50;99.90;;;;;;4179832;28;20083;-88
2022/03/15 04:10:16;;;;;;;18.48;8.43;;;6.40;99.90;;;;;;4183740;28;20438;-89
2022/03/15 04:12:20;;;;;;;20.73;8.07;;;6.10;99.90;;;;;;4199895;28;20049;-88
2022/03/15 04:14:20;;;;;;;19.63;8.20;;;5.50;99.90;;;;;;4181858;28;20055;-89
2022/03/15 04:16:22;;;;;;;19.38;7.32;;;5.40;99.90;;;;;;4198135;28;20044;-89
2022/03/15 04:18:22;;;;;;;17.85;7.72;;;6.50;99.90;;;;;;4183083;28;20053;-88
2022/03/15 04:20:23;;;;;;;18.48;7.57;;;6.50;99.90;;;;;;4183744;28;20072;-88
2022/03/15 04:22:24;;;;;;;17.35;8.27;;;6.30;99.90;;;;;;4185019;28;20383;-88
2022/03/15 04:24:25;;;;;;;21.63;8.30;;;6.30;99.90;;;;;;4183875;28;20526;-89
2022/03/15 04:26:26;;;;;;;25.45;8.70;;;6.70;99.90;;;;;;4183836;28;20084;-88
2022/03/15 04:28:27;;;;;;;19.08;7.55;;;6.70;99.90;;;;;;4182358;28;20478;-88
2022/03/15 04:30:29;;;;;;;16.67;8.48;;;5.50;99.90;;;;;;4183366;28;20041;-87
2022/03/15 04:32:30;;;;;;;19.27;8.40;;;6.30;99.90;;;;;;4185439;28;20041;-88
2022/03/15 04:34:31;;;;;;;18.77;8.30;;;6.60;99.90;;;;;;4183270;28;20057;-88
2022/03/15 04:36:35;;;;;;;25.48;8.25;;;6.10;99.90;;;;;;4184638;28;20045;-87
2022/03/15 04:38:36;;;;;;;20.77;9.38;;;5.60;99.90;;;;;;4184986;28;20049;-88
2022/03/15 04:40:37;;;;;;;23.67;9.52;;;4.60;99.90;;;;;;4184980;28;20087;-88
2022/03/15 04:42:38;;;;;;;18.98;8.90;;;6.60;99.90;;;;;;4184197;28;20068;-88
2022/03/15 04:44:38;;;;;;;25.77;10.38;;;5.60;99.90;;;;;;4184206;28;20106;-88
2022/03/15 04:46:39;;;;;;;23.45;8.43;;;6.80;99.90;;;;;;4183421;28;20041;-87
2022/03/15 04:48:40;;;;;;;29.48;8.52;;;6.70;99.90;;;;;;4184056;28;20049;-88
2022/03/15 04:50:41;;;;;;;17.55;8.95;;;6.80;99.90;;;;;;4185887;28;20191;-88
2022/03/15 04:52:43;;;;;;;23.13;7.95;;;6.50;99.90;;;;;;4189326;28;20052;-88
2022/03/15 04:54:45;;;;;;;23.90;8.88;;;6.50;99.90;;;;;;4188271;28;20036;-88
2022/03/15 04:56:46;;;;;;;21.83;9.55;;;6.80;99.90;;;;;;4169726;28;20054;-88
2022/03/15 04:58:46;;;;;;;21.35;8.05;;;6.90;99.90;;;;;;4185897;28;20511;-88
2022/03/15 05:00:47;;;;;;;20.52;8.73;;;5.70;99.90;;;;;;4186256;28;20045;-88
2022/03/15 05:02:49;;;;;;;22.40;9.38;;;5.70;99.90;;;;;;4185968;28;20055;-88
2022/03/15 05:04:51;;;;;;;19.65;7.80;;;6.00;99.90;;;;;;4187266;28;20052;-88
2022/03/15 05:06:52;;;;;;;17.52;8.40;;;5.70;99.90;;;;;;4188254;28;20494;-88
2022/03/15 05:08:52;;;;;;;18.25;9.57;;;6.40;99.90;;;;;;4186531;28;20147;-88
2022/03/15 05:11:07;;;;;;;17.70;8.23;;;6.10;99.90;;;;;;4188496;28;20057;-88
2022/03/15 05:13:07;;;;;;;16.40;8.00;;;6.40;99.90;;;;;;4177187;28;20053;-88
2022/03/15 05:15:08;;;;;;;30.75;9.60;;;6.60;99.90;;;;;;4194853;28;20045;-88
2022/03/15 05:17:09;;;;;;;20.70;9.05;;;5.70;99.90;;;;;;4195519;28;20048;-88
2022/03/15 05:19:10;;;;;;;17.73;7.80;;;6.90;99.90;;;;;;4194633;28;20149;-88
2022/03/15 05:21:16;;;;;;;20.30;7.65;;;6.50;99.90;;;;;;4193814;28;20067;-88
2022/03/15 05:23:16;;;;;;;17.83;7.57;;;6.30;99.90;;;;;;4195302;28;20581;-88
2022/03/15 05:25:17;;;;;;;15.02;7.30;;;5.60;99.90;;;;;;4195357;28;20213;-88
2022/03/15 05:27:19;;;;;;;17.80;7.57;;;5.90;99.90;;;;;;4191737;28;20053;-89
2022/03/15 05:29:21;;;;;;;20.75;8.95;;;6.50;99.90;;;;;;4168738;28;20065;-89
2022/03/15 05:31:23;;;;;;;17.73;8.88;;;5.60;99.90;;;;;;4187503;28;20041;-89
2022/03/15 05:33:24;;;;;;;20.30;8.75;;;6.90;99.90;;;;;;4185673;28;20415;-89
2022/03/15 05:35:25;;;;;;;18.90;8.73;;;5.60;99.90;;;;;;4185975;28;20061;-88
2022/03/15 05:37:26;;;;;;;17.13;8.88;;;5.60;99.90;;;;;;4188280;28;20055;-89
2022/03/15 05:39:27;;;;;;;19.52;8.63;;;6.90;99.90;;;;;;4204374;28;20082;-88
2022/03/15 05:41:28;;;;;;;29.40;9.27;;;5.70;99.90;;;;;;4187350;28;20127;-89
2022/03/15 05:43:29;;;;;;;20.95;8.40;;;5.70;99.90;;;;;;4186717;28;20514;-88
2022/03/15 05:45:29;;;;;;;25.80;9.55;;;6.30;99.90;;;;;;4185627;28;20048;-89
2022/03/15 05:47:30;;;;;;;28.00;10.05;;;5.60;99.90;;;;;;4185390;28;20056;-88
2022/03/15 05:49:31;;;;;;;21.13;9.43;;;5.70;99.90;;;;;;4201403;28;20114;-88
2022/03/15 05:51:31;;;;;;;17.27;8.65;;;5.60;99.90;;;;;;4192495;28;20523;-89
2022/03/15 05:53:32;;;;;;;15.52;7.68;;;6.50;99.90;;;;;;4192538;28;20041;-88
2022/03/15 05:55:34;;;;;;;18.70;8.20;;;6.70;99.90;;;;;;4186478;28;20045;-86
2022/03/15 05:57:35;;;;;;;23.00;8.88;;;6.10;99.90;;;;;;4184922;28;20487;-87
2022/03/15 05:59:36;;;;;;;24.58;8.95;;;5.90;99.90;;;;;;4184417;28;20106;-85
2022/03/15 06:01:37;;;;;;;20.05;8.48;;;6.90;99.90;;;;;;4182563;28;20045;-87
2022/03/15 06:03:38;;;;;;;18.02;8.63;;;6.20;99.90;;;;;;4185864;28;20048;-86
2022/03/15 06:05:39;;;;;;;21.25;8.57;;;5.60;99.90;;;;;;4190260;28;20059;-87
2022/03/15 06:07:44;;;;;;;25.58;9.18;;;5.60;99.90;;;;;;4190250;28;20043;-86
2022/03/15 06:09:45;;;;;;;24.90;10.68;;;6.50;99.90;;;;;;4168324;28;20049;-86
2022/03/15 06:11:45;;;;;;;26.70;10.60;;;5.50;99.90;;;;;;4183933;28;20052;-87
2022/03/15 06:13:47;;;;;;;22.90;9.35;;;7.00;99.90;;;;;;4193309;28;20047;-88
2022/03/15 06:15:48;;;;;;;22.80;9.57;;;6.50;99.90;;;;;;4182534;28;20416;-88
2022/03/15 06:18:03;;;;;;;29.27;10.15;;;5.60;99.90;;;;;;4182643;28;20107;-88
2022/03/15 06:20:04;;;;;;;26.52;10.73;;;6.20;99.90;;;;;;4186911;28;20052;-88
2022/03/15 06:22:06;;;;;;;30.67;10.63;;;5.60;99.90;;;;;;4183947;28;20551;-87
2022/03/15 06:24:10;;;;;;;27.80;10.68;;;5.60;99.90;;;;;;4169857;28;20445;-88
2022/03/15 06:26:15;;;;;;;23.52;9.88;;;6.60;99.90;;;;;;4186942;28;20124;-88
2022/03/15 06:28:16;;;;;;;27.85;11.30;;;5.60;99.90;;;;;;4182839;28;20081;-88
2022/03/15 06:30:17;;;;;;;21.08;11.30;;;5.60;99.90;;;;;;4166551;28;20046;-88
2022/03/15 06:32:19;;;;;;;32.00;10.73;;;6.40;99.90;;;;;;4182180;28;20045;-88
2022/03/15 06:34:20;;;;;;;29.55;11.90;;;5.60;99.90;;;;;;4182704;28;20053;-88
2022/03/15 06:36:22;;;;;;;27.80;11.43;;;6.60;99.90;;;;;;4166669;28;20079;-87
2022/03/15 06:38:24;;;;;;;28.00;11.05;;;6.30;99.90;;;;;;4182333;28;20068;-88
2022/03/15 06:40:29;;;;;;;32.55;11.32;;;6.60;99.90;;;;;;4183784;28;20461;-86
2022/03/15 06:42:31;;;;;;;33.33;11.48;;;5.90;99.90;;;;;;4166406;28;20052;-89
2022/03/15 06:44:31;;;;;;;31.23;10.98;;;6.60;99.90;;;;;;4182713;28;20049;-88
2022/03/15 06:46:33;;;;;;;28.20;13.30;;;5.70;99.90;;;;;;4183677;28;20037;-88
2022/03/15 06:48:35;;;;;;;30.20;12.13;;;6.80;99.90;;;;;;4183144;28;20087;-87
2022/03/15 06:50:36;;;;;;;23.13;10.70;;;5.80;99.90;;;;;;4182299;28;20087;-88
2022/03/15 06:52:42;;;;;;;30.38;12.80;;;6.90;99.90;;;;;;4182030;28;20519;-88
2022/03/15 06:54:43;;;;;;;28.77;12.25;;;5.80;99.90;;;;;;4165222;28;20045;-88
2022/03/15 06:56:45;;;;;;;37.30;12.20;;;7.00;99.90;;;;;;4181702;28;20076;-88
2022/03/15 06:58:46;;;;;;;25.75;12.35;;;6.60;99.90;;;;;;4198680;28;20052;-88
2022/03/15 07:00:49;;;;;;;27.42;11.85;;;5.90;99.90;;;;;;4183327;28;20041;-88
2022/03/15 07:02:50;;;;;;;30.30;12.35;;;5.90;99.90;;;;;;4180596;28;20109;-88
2022/03/15 07:04:50;;;;;;;30.73;13.43;;;5.90;99.90;;;;;;4165391;28;20109;-88
2022/03/15 07:06:51;;;;;;;27.42;12.45;;;7.20;99.90;;;;;;4183086;28;20044;-88
2022/03/15 07:08:54;;;;;;;29.88;13.02;;;7.10;99.90;;;;;;4183854;28;20037;-88
2022/03/15 07:10:56;;;;;;;25.05;12.23;;;6.90;99.90;;;;;;4182034;28;20041;-88
2022/03/15 07:12:57;;;;;;;33.95;12.73;;;6.00;99.90;;;;;;4181499;28;20124;-88
2022/03/15 07:15:00;;;;;;;36.22;13.43;;;6.90;99.90;;;;;;4181350;28;20053;-88
2022/03/15 07:17:01;;;;;;;30.58;12.32;;;6.10;99.90;;;;;;4181806;28;20620;-89
2022/03/15 07:19:02;;;;;;;31.38;12.25;;;6.10;99.90;;;;;;4182287;28;20095;-88
2022/03/15 07:21:03;;;;;;;26.75;13.48;;;6.80;99.90;;;;;;4165258;28;20091;-88
2022/03/15 07:23:05;;;;;;;27.35;12.65;;;6.40;99.90;;;;;;4182255;28;20076;-88
2022/03/15 07:25:07;;;;;;;31.13;11.82;;;7.40;99.90;;;;;;4186329;28;20040;-87
2022/03/15 07:27:10;;;;;;;31.00;12.98;;;6.10;99.90;;;;;;4188669;28;20483;-89
2022/03/15 07:29:12;;;;;;;28.40;13.00;;;6.10;99.90;;;;;;4190071;28;20044;-87
2022/03/15 07:31:14;;;;;;;26.67;11.98;;;7.40;99.90;;;;;;4189548;28;20052;-89
2022/03/15 07:33:14;;;;;;;26.10;12.20;;;6.60;99.90;;;;;;4186988;28;20060;-88
2022/03/15 07:35:16;;;;;;;33.42;13.55;;;7.40;99.90;;;;;;4187280;28;20053;-87
2022/03/15 07:37:18;;;;;;;30.05;13.02;;;7.20;99.90;;;;;;4184302;28;20045;-88
2022/03/15 07:39:20;;;;;;;32.65;12.02;;;5.40;99.90;;;;;;4181213;28;20541;-89
2022/03/15 07:41:23;;;;;;;28.40;11.57;;;6.30;99.90;;;;;;4183609;28;20083;-89
2022/03/15 07:43:25;;;;;;;25.90;12.43;;;6.30;99.90;;;;;;4165227;28;20045;-89
2022/03/15 07:45:27;;;;;;;29.25;11.00;;;6.40;99.90;;;;;;4182620;28;20056;-90
2022/03/15 07:47:27;;;;;;;29.05;12.25;;;6.40;99.90;;;;;;4181539;28;20052;-89
2022/03/15 07:49:29;;;;;;;30.77;12.73;;;6.50;99.90;;;;;;4182208;28;20051;-90
2022/03/15 07:51:30;;;;;;;23.75;12.00;;;6.40;99.90;;;;;;4165610;28;20049;-89
2022/03/15 07:53:31;;;;;;;28.65;10.82;;;7.50;99.90;;;;;;4164590;28;20049;-90
2022/03/15 07:55:32;;;;;;;29.38;11.52;;;7.30;99.90;;;;;;4183307;28;20045;-90
2022/03/15 07:57:34;;;;;;;28.27;12.23;;;6.50;99.90;;;;;;4185240;28;20072;-90
2022/03/15 07:59:34;;;;;;;29.30;12.75;;;6.50;99.90;;;;;;4183275;28;20049;-93
2022/03/15 08:01:37;;;;;;;25.00;13.98;;;7.60;99.90;;;;;;4190529;28;20511;-88
2022/03/15 08:03:38;;;;;;;29.98;12.35;;;6.40;99.90;;;;;;4179882;28;20052;-89
2022/03/15 08:05:39;;;;;;;31.25;12.55;;;6.40;99.90;;;;;;4196505;28;20661;-89
2022/03/15 08:07:40;;;;;;;29.77;13.32;;;7.40;99.90;;;;;;4212409;28;20040;-89
2022/03/15 08:09:42;;;;;;;29.65;12.20;;;7.50;99.90;;;;;;4193490;28;20052;-89
2022/03/15 08:11:45;;;;;;;29.77;13.20;;;7.30;99.90;;;;;;4180473;28;20053;-88
2022/03/15 08:14:12;;;;;;;32.30;14.45;;;6.50;99.90;;;;;;4183543;28;20044;-89
2022/03/15 08:16:13;;;;;;;35.10;13.88;;;6.60;99.90;;;;;;4166656;28;20057;-90
2022/03/15 08:18:14;;;;;;;31.70;13.55;;;6.60;99.90;;;;;;4180518;28;20636;-89
2022/03/15 08:20:18;;;;;;;33.47;14.38;;;7.10;99.90;;;;;;4180818;28;20060;-89
2022/03/15 08:22:20;;;;;;;30.65;15.18;;;6.60;99.90;;;;;;4164628;28;20119;-89
2022/03/15 08:24:23;;;;;;;30.50;15.20;;;8.00;99.90;;;;;;4183916;28;20523;-89
2022/03/15 08:26:24;;;;;;;39.17;15.20;;;6.70;99.90;;;;;;4186297;28;20102;-89
2022/03/15 08:28:25;;;;;;;34.25;15.90;;;6.70;99.90;;;;;;4168810;28;20435;-90
2022/03/15 08:30:26;;;;;;;35.67;15.23;;;;;;;;;;4184368;28;20155;-90
2022/03/15 08:32:28;;;;;;;39.95;15.65;;;;;;;;;;4167588;28;20049;-90
2022/03/15 08:34:29;;;;;;;29.88;14.60;;;;;;;;;;4168658;28;20080;-90
2022/03/15 08:36:30;;;;;;;35.22;15.93;;;;;;;;;;4171408;28;20439;-89
2022/03/15 08:38:57;;;;;;;34.70;15.43;;;6.80;99.90;;;;;;4171798;28;20443;-89
2022/03/15 08:41:21;;;;;;;31.70;14.32;;;6.90;99.90;;;;;;4175581;28;20050;-87
2022/03/15 08:43:29;;;;;;;39.17;15.13;;;;;;;;;;4177927;28;20105;-88
2022/03/15 08:45:31;;;;;;;35.25;15.63;;;;;;;;;;4193698;28;20224;-88
2022/03/15 08:47:40;;;;;;;39.50;16.30;;;;;;;;;;4193862;28;20051;-88
2022/03/15 08:49:43;;;;;;;;;;;;;;;;;;4196909;28;20048;-88
2022/03/15 08:51:45;;;;;;;33.05;15.52;;;;;;;;;;4196525;28;19928;-88
2022/03/15 08:53:46;;;;;;;34.72;16.83;;;;;;;;;;4178591;28;20529;-89
2022/03/15 08:55:48;;;;;;;33.22;16.55;;;;;;;;;;4178262;28;20041;-88
2022/03/15 08:57:49;;;;;;;34.53;15.80;;;;;;;;;;4194170;28;20396;-88
2022/03/15 08:59:51;;;;;;;35.83;15.52;;;;;;;;;;4194209;28;20044;-89
2022/03/15 09:01:53;;;;;;;41.65;16.80;;;;;;;;;;4195819;28;20101;-89
2022/03/15 09:03:54;;;;;;;35.13;17.70;;;;;;;;;;4195231;28;20045;-89
2022/03/15 09:05:55;;;;;;;33.78;14.65;;;;;;;;;;4197232;28;20052;-88
2022/03/15 09:07:59;;;;;;;34.67;16.45;;;;;;;;;;4173107;28;20061;-88
2022/03/15 09:10:00;;;;;;;41.78;16.33;;;;;;;;;;4191082;28;20438;-89
2022/03/15 09:12:05;;;;;;;39.30;15.77;;;;;;;;;;4172313;28;20053;-90
2022/03/15 09:14:06;;;;;;;33.80;15.68;;;;;;;;;;4178477;28;20042;-89
2022/03/15 09:16:10;;;;;;;49.75;18.25;;;;;;;;;;4198278;28;20073;-89
2022/03/15 09:18:13;;;;;;;34.38;15.63;;;;;;;;;;4196470;28;20044;-90
2022/03/15 09:20:16;;;;;;;36.47;16.15;;;;;;;;;;4173394;28;20045;-90
2022/03/15 09:22:17;;;;;;;33.85;17.08;;;;;;;;;;4178735;28;20050;-89
2022/03/15 09:24:19;;;;;;;36.13;16.80;;;;;;;;;;4178356;28;20057;-88
2022/03/15 09:26:22;;;;;;;33.45;15.32;;;;;;;;;;4196238;28;20052;-89
2022/03/15 09:28:23;;;;;;;34.38;16.80;;;;;;;;;;4196281;28;20132;-89
2022/03/15 09:30:30;;;;;;;34.38;16.58;;;;;;;;;;4196462;28;20059;-89
2022/03/15 09:32:32;;;;;;;37.97;15.88;;;;;;;;;;4172839;28;20519;-85
2022/03/15 09:34:34;;;;;;;39.90;16.30;;;;;;;;;;4169440;28;20137;-89
2022/03/15 09:36:36;;;;;;;34.50;15.60;;;;;;;;;;4187623;28;20483;-87
2022/03/15 09:38:37;;;;;;;31.73;16.48;;;;;;;;;;4183470;28;20052;-88
2022/03/15 09:40:38;;;;;;;31.67;15.02;;;;;;;;;;4165340;28;20307;-87
2022/03/15 09:42:42;;;;;;;34.88;16.73;;;;;;;;;;4194713;28;20084;-88
2022/03/15 09:44:45;;;;;;;33.35;15.65;;;;;;;;;;4188123;28;20047;-87
2022/03/15 09:46:50;;;;;;;36.28;15.65;;;;;;;;;;4181554;28;20045;-87
2022/03/15 09:48:54;;;;;;;35.15;16.95;;;;;;;;;;4185486;28;20041;-87
2022/03/15 09:50:55;;;;;;;36.55;16.33;;;;;;;;;;4186434;28;20029;-88
2022/03/15 09:52:58;;;;;;;29.45;14.80;;;;;;;;;;4187179;28;20033;-88
2022/03/15 09:54:59;;;;;;;29.55;13.75;;;;;;;;;;4176845;28;20046;-88
2022/03/15 09:57:02;;;;;;;32.88;15.95;;;;;;;;;;4158642;28;20045;-88
2022/03/15 09:59:03;;;;;;;33.15;14.07;;;;;;;;;;4185618;28;20040;-88
2022/03/15 10:01:04;;;;;;;31.13;15.07;;;;;;;;;;4167592;28;20085;-88
2022/03/15 10:03:05;;;;;;;29.02;14.82;;;;;;;;;;4183820;28;20047;-88
2022/03/15 10:05:07;;;;;;;32.38;13.23;;;;;;;;;;4167131;28;20052;-88
2022/03/15 10:07:08;;;;;;;35.42;14.80;;;;;;;;;;4184823;28;20052;-88
2022/03/15 10:09:11;;;;;;;31.88;14.35;;;;;;;;;;4167712;28;20071;-89
2022/03/15 10:11:12;;;;;;;26.23;13.48;;;;;;;;;;4184308;28;20045;-89
2022/03/15 10:13:14;;;;;;;25.25;12.43;;;;;;;;;;4183279;28;20049;-89
2022/03/15 10:15:16;;;;;;;30.30;14.27;;;;;;;;;;4183357;28;20060;-88
2022/03/15 10:17:17;;;;;;;27.40;13.45;;;;;;;;;;4184080;28;20041;-88
2022/03/15 10:19:19;;;;;;;27.33;13.00;;;;;;;;;;4166164;28;20077;-88
2022/03/15 10:21:24;;;;;;;24.45;13.60;;;;;;;;;;4183782;28;20057;-89
2022/03/15 10:23:29;;;;;;;26.05;13.43;;;;;;;;;;4189209;28;20045;-89
2022/03/15 10:25:31;;;;;;;30.35;13.40;;;;;;;;;;4183472;28;20063;-86
2022/03/15 10:27:36;;;;;;;23.27;13.25;;;;;;;;;;4182337;28;20053;-86
2022/03/15 10:29:37;;;;;;;27.15;12.68;;;;;;;;;;4183627;28;20048;-86
2022/03/15 10:31:39;;;;;;;24.00;11.98;;;;;;;;;;4180807;28;20056;-87
2022/03/15 10:33:41;;;;;;;25.05;14.45;;;;;;;;;;4182610;28;20067;-87
2022/03/15 10:35:47;;;;;;;26.92;13.88;;;;;;;;;;4182869;28;20049;-86
2022/03/15 10:37:48;;;;;;;25.10;13.10;;;;;;;;;;4182513;28;20044;-86
2022/03/15 10:39:49;;;;;;;29.33;14.48;;;;;;;;;;4181512;28;20037;-87
2022/03/15 10:41:52;;;;;;;29.05;14.45;;;;;;;;;;4182489;28;20044;-87
2022/03/15 10:43:54;;;;;;;24.27;13.18;;;;;;;;;;4181572;28;20453;-87
2022/03/15 10:45:57;;;;;;;27.35;12.40;;;;;;;;;;4186887;28;20040;-87
2022/03/15 10:47:59;;;;;;;25.65;13.23;;;;;;;;;;4183605;28;20102;-86